createdAt,value
2023-05-14T00:01:40.561Z,9.01
2023-05-14T00:04:16.011Z,8.79
2023-05-14T00:06:42.724Z,8.75
2023-05-14T00:09:09.783Z,8.58
2023-05-14T00:11:36.555Z,8.76
2023-05-14T00:14:03.494Z,8.72
2023-05-14T00:16:30.272Z,8.78
2023-05-14T00:18:57.496Z,8.71
2023-05-14T00:21:24.824Z,8.79
2023-05-14T00:23:51.426Z,8.95
2023-05-14T00:26:18.497Z,8.96
2023-05-14T00:28:45.178Z,9.14
2023-05-14T00:31:11.827Z,9.19
2023-05-14T00:33:38.543Z,9.10
2023-05-14T00:36:05.375Z,9.23
2023-05-14T00:38:32.178Z,9.17
2023-05-14T00:40:58.837Z,9.02
2023-05-14T00:43:26.007Z,9.04
2023-05-14T00:45:54.822Z,9.17
2023-05-14T00:48:22.048Z,9.06
2023-05-14T00:50:49.936Z,9.09
2023-05-14T00:53:17.759Z,8.94
2023-05-14T00:55:46.896Z,9.07
2023-05-14T00:58:14.619Z,9.01
2023-05-14T01:00:41.996Z,9.21
2023-05-14T01:03:09.530Z,9.20
2023-05-14T01:05:43.815Z,9.27
2023-05-14T01:08:24.465Z,9.22
2023-05-14T01:11:09.444Z,9.26
2023-05-14T01:13:52.135Z,9.30
2023-05-14T01:16:28.101Z,9.36
2023-05-14T01:18:57.628Z,9.41
2023-05-14T01:21:40.961Z,9.20
2023-05-14T01:24:13.754Z,9.06
2023-05-14T01:26:45.058Z,9.04
2023-05-14T01:29:28.668Z,9.18
2023-05-14T01:31:58.637Z,9.19
2023-05-14T01:34:30.177Z,9.14
2023-05-14T01:36:57.925Z,9.30
2023-05-14T01:39:25.944Z,9.35
2023-05-14T01:41:54.369Z,9.19
2023-05-14T01:44:21.852Z,9.08
2023-05-14T01:46:48.507Z,8.98
2023-05-14T01:49:16.228Z,9.01
2023-05-14T01:51:42.884Z,9.12
2023-05-14T01:54:09.562Z,9.24
2023-05-14T01:56:36.628Z,9.22
2023-05-14T01:59:03.371Z,9.25
2023-05-14T02:01:31.907Z,9.23
2023-05-14T02:03:58.694Z,9.14
2023-05-14T02:06:26.133Z,9.06
2023-05-14T02:08:52.825Z,8.98
2023-05-14T02:11:19.486Z,9.05
2023-05-14T02:13:46.131Z,8.88
2023-05-14T02:16:12.914Z,8.95
2023-05-14T02:18:39.809Z,9.00
2023-05-14T02:21:06.522Z,9.11
2023-05-14T02:23:41.089Z,9.14
2023-05-14T02:26:10.797Z,9.09
2023-05-14T02:28:37.488Z,9.23
2023-05-14T02:31:04.191Z,8.88
2023-05-14T02:33:31.439Z,8.93
2023-05-14T02:35:58.247Z,8.72
2023-05-14T02:38:26.369Z,8.60
2023-05-14T02:40:53.091Z,8.66
2023-05-14T02:43:19.797Z,8.83
2023-05-14T02:45:47.074Z,8.97
2023-05-14T02:48:13.801Z,8.96
2023-05-14T02:50:40.540Z,9.01
2023-05-14T02:53:08.140Z,8.89
2023-05-14T02:55:35.528Z,8.98
2023-05-14T02:58:02.282Z,9.05
2023-05-14T03:00:28.959Z,8.85
2023-05-14T03:02:56.170Z,9.00
2023-05-14T03:05:23.305Z,9.12
2023-05-14T03:07:51.718Z,9.21
2023-05-14T03:10:18.461Z,9.24
2023-05-14T03:12:45.316Z,9.27
2023-05-14T03:15:11.993Z,9.15
2023-05-14T03:17:38.694Z,8.82
2023-05-14T03:20:05.871Z,8.61
2023-05-14T03:22:32.635Z,8.63
2023-05-14T03:24:59.482Z,8.88
2023-05-14T03:27:26.216Z,8.95
2023-05-14T03:29:52.879Z,9.03
2023-05-14T03:32:19.659Z,9.08
2023-05-14T03:34:46.345Z,9.13
2023-05-14T03:37:13.159Z,8.92
2023-05-14T03:39:40.065Z,8.88
2023-05-14T03:42:06.734Z,8.70
2023-05-14T03:44:33.435Z,8.78
2023-05-14T03:47:00.159Z,8.83
2023-05-14T03:49:26.833Z,8.94
2023-05-14T03:51:53.529Z,8.81
2023-05-14T03:54:20.277Z,8.88
2023-05-14T03:56:47.009Z,8.93
2023-05-14T03:59:13.656Z,9.19
2023-05-14T04:01:40.341Z,9.33
2023-05-14T04:04:07.193Z,9.39
2023-05-14T04:06:33.977Z,9.49
2023-05-14T04:09:00.771Z,9.51
2023-05-14T04:11:27.417Z,9.63
2023-05-14T04:13:54.155Z,9.64
2023-05-14T04:16:20.974Z,9.43
2023-05-14T04:18:47.658Z,9.26
2023-05-14T04:21:14.388Z,9.25
2023-05-14T04:23:41.090Z,9.26
2023-05-14T04:26:07.801Z,9.43
2023-05-14T04:28:34.510Z,9.54
2023-05-14T04:31:01.327Z,9.54
2023-05-14T04:33:28.731Z,9.49
2023-05-14T04:35:55.802Z,9.40
2023-05-14T04:38:23.347Z,9.66
2023-05-14T04:40:49.958Z,9.62
2023-05-14T04:43:17.512Z,9.79
2023-05-14T04:45:44.340Z,10.00
2023-05-14T04:48:11.081Z,9.97
2023-05-14T04:50:37.778Z,9.97
2023-05-14T04:53:04.479Z,9.97
2023-05-14T04:55:31.208Z,9.84
2023-05-14T04:57:57.956Z,9.82
2023-05-14T05:00:24.971Z,10.15
2023-05-14T05:02:51.781Z,10.29
2023-05-14T05:05:18.749Z,10.14
2023-05-14T05:07:45.498Z,10.17
2023-05-14T05:10:12.395Z,9.90
2023-05-14T05:12:39.133Z,10.02
2023-05-14T05:15:06.596Z,10.26
2023-05-14T05:17:33.921Z,10.37
2023-05-14T05:20:00.675Z,10.47
2023-05-14T05:22:27.502Z,10.46
2023-05-14T05:24:54.165Z,10.51
2023-05-14T05:27:22.028Z,10.54
2023-05-14T05:29:48.698Z,10.54
2023-05-14T05:32:15.671Z,10.42
2023-05-14T05:34:42.466Z,10.43
2023-05-14T05:37:12.830Z,10.50
2023-05-14T05:39:39.995Z,10.66
2023-05-14T05:42:07.176Z,10.66
2023-05-14T05:44:33.861Z,10.82
2023-05-14T05:47:00.780Z,10.86
2023-05-14T05:49:27.674Z,10.95
2023-05-14T05:51:54.397Z,10.95
2023-05-14T05:54:23.005Z,10.72
2023-05-14T05:56:49.644Z,10.47
2023-05-14T05:59:16.366Z,10.31
2023-05-14T06:01:48.215Z,10.40
2023-05-14T06:04:14.886Z,10.66
2023-05-14T06:06:41.613Z,10.79
2023-05-14T06:09:09.144Z,10.82
2023-05-14T06:11:36.111Z,10.57
2023-05-14T06:14:02.893Z,10.36
2023-05-14T06:16:29.553Z,10.43
2023-05-14T06:18:56.248Z,10.50
2023-05-14T06:21:23.047Z,10.54
2023-05-14T06:23:49.732Z,10.29
2023-05-14T06:26:16.917Z,10.37
2023-05-14T06:28:43.754Z,10.26
2023-05-14T06:31:10.482Z,10.63
2023-05-14T06:33:37.157Z,10.64
2023-05-14T06:36:06.266Z,10.82
2023-05-14T06:38:32.989Z,11.09
2023-05-14T06:40:59.722Z,10.95
2023-05-14T06:43:26.464Z,11.00
2023-05-14T06:45:53.260Z,10.88
2023-05-14T06:48:20.136Z,10.82
2023-05-14T06:50:48.226Z,10.95
2023-05-14T06:53:15.746Z,10.98
2023-05-14T06:55:42.513Z,10.92
2023-05-14T06:58:09.822Z,11.06
2023-05-14T07:00:36.538Z,10.97
2023-05-14T07:03:03.319Z,10.83
2023-05-14T07:05:30.066Z,11.06
2023-05-14T07:07:56.757Z,11.25
2023-05-14T07:10:23.931Z,11.36
2023-05-14T07:12:50.885Z,11.37
2023-05-14T07:15:17.654Z,11.10
2023-05-14T07:17:44.390Z,11.16
2023-05-14T07:20:11.608Z,10.85
2023-05-14T07:22:38.311Z,10.93
2023-05-14T07:25:05.348Z,10.99
2023-05-14T07:27:36.398Z,11.08
2023-05-14T07:30:03.287Z,11.25
2023-05-14T07:32:40.098Z,11.05
2023-05-14T07:35:07.371Z,11.08
2023-05-14T07:37:34.362Z,11.13
2023-05-14T07:40:01.067Z,11.43
2023-05-14T07:42:36.027Z,11.34
2023-05-14T07:45:04.556Z,11.33
2023-05-14T07:47:31.337Z,11.38
2023-05-14T07:49:58.305Z,11.50
2023-05-14T07:52:24.987Z,11.66
2023-05-14T07:54:52.135Z,11.53
2023-05-14T07:57:19.919Z,11.48
2023-05-14T07:59:48.198Z,11.73
2023-05-14T08:02:16.265Z,11.88
2023-05-14T08:04:43.161Z,12.03
2023-05-14T08:07:09.833Z,12.08
2023-05-14T08:09:37.202Z,12.45
2023-05-14T08:12:04.541Z,12.92
2023-05-14T08:14:31.182Z,13.32
2023-05-14T08:16:57.880Z,13.24
2023-05-14T08:19:24.692Z,13.42
2023-05-14T08:21:51.551Z,13.32
2023-05-14T08:24:19.266Z,13.18
2023-05-14T08:26:45.934Z,13.16
2023-05-14T08:29:14.063Z,12.91
2023-05-14T08:31:42.857Z,12.75
2023-05-14T08:34:09.541Z,12.70
2023-05-14T08:36:36.723Z,12.69
2023-05-14T08:39:03.480Z,12.59
2023-05-14T08:41:30.183Z,12.05
2023-05-14T08:44:09.416Z,12.41
2023-05-14T08:46:38.124Z,12.21
2023-05-14T08:49:13.968Z,12.11
2023-05-14T08:51:41.123Z,11.63
2023-05-14T08:54:07.837Z,11.74
2023-05-14T08:56:34.893Z,12.01
2023-05-14T08:59:01.624Z,12.33
2023-05-14T09:01:29.800Z,12.48
2023-05-14T09:03:56.919Z,12.70
2023-05-14T09:06:24.501Z,12.69
2023-05-14T09:08:51.210Z,12.66
2023-05-14T09:11:17.908Z,12.27
2023-05-14T09:13:44.520Z,12.31
2023-05-14T09:16:11.187Z,12.03
2023-05-14T09:18:38.024Z,12.01
2023-05-14T09:21:04.891Z,12.17
2023-05-14T09:23:33.690Z,12.28
2023-05-14T09:26:05.069Z,12.21
2023-05-14T09:28:31.814Z,12.08
2023-05-14T09:30:58.477Z,12.04
2023-05-14T09:33:29.343Z,12.20
2023-05-14T09:36:00.682Z,12.18
2023-05-14T09:38:31.683Z,12.49
2023-05-14T09:40:59.993Z,12.97
2023-05-14T09:43:28.949Z,13.21
2023-05-14T09:45:55.724Z,13.22
2023-05-14T09:48:23.141Z,13.32
2023-05-14T09:50:49.918Z,13.19
2023-05-14T09:53:17.764Z,13.04
2023-05-14T09:55:45.485Z,12.91
2023-05-14T09:58:14.464Z,12.87
2023-05-14T10:00:45.450Z,12.99
2023-05-14T10:03:16.504Z,13.21
2023-05-14T10:05:45.108Z,13.74
2023-05-14T10:08:43.893Z,13.89
2023-05-14T10:11:15.589Z,13.71
2023-05-14T10:13:47.621Z,13.47
2023-05-14T10:16:25.477Z,13.28
2023-05-14T10:18:57.321Z,13.37
2023-05-14T10:21:25.548Z,13.67
2023-05-14T10:23:52.620Z,13.83
2023-05-14T10:26:20.138Z,13.65
2023-05-14T10:28:48.102Z,13.79
2023-05-14T10:31:14.802Z,13.77
2023-05-14T10:33:51.155Z,13.52
2023-05-14T10:36:19.016Z,13.75
2023-05-14T10:38:47.196Z,14.00
2023-05-14T10:41:17.662Z,13.97
2023-05-14T10:43:44.657Z,13.76
2023-05-14T10:46:13.480Z,13.98
2023-05-14T10:48:43.061Z,13.96
2023-05-14T10:51:11.089Z,14.12
2023-05-14T10:53:43.012Z,13.89
2023-05-14T10:56:12.396Z,13.76
2023-05-14T10:58:42.141Z,13.57
2023-05-14T11:01:12.213Z,13.85
2023-05-14T11:03:42.303Z,13.94
2023-05-14T11:06:10.584Z,13.75
2023-05-14T11:08:38.707Z,14.03
2023-05-14T11:11:06.466Z,14.08
2023-05-14T11:13:34.666Z,14.10
2023-05-14T11:16:15.149Z,14.54
2023-05-14T11:18:48.200Z,14.61
2023-05-14T11:21:16.870Z,14.53
2023-05-14T11:23:46.623Z,14.72
2023-05-14T11:26:14.150Z,14.75
2023-05-14T11:28:41.209Z,14.79
2023-05-14T11:31:07.882Z,14.72
2023-05-14T11:33:36.163Z,14.66
2023-05-14T11:36:02.924Z,14.71
2023-05-14T11:38:29.557Z,14.95
2023-05-14T11:40:58.042Z,15.21
2023-05-14T11:43:28.508Z,15.54
2023-05-14T11:45:56.154Z,15.68
2023-05-14T11:48:23.965Z,15.75
2023-05-14T11:50:52.972Z,15.53
2023-05-14T11:53:28.092Z,15.86
2023-05-14T11:55:55.404Z,16.11
2023-05-14T11:58:27.378Z,15.91
2023-05-14T12:00:55.953Z,15.76
2023-05-14T12:03:26.771Z,15.86
2023-05-14T12:06:00.330Z,15.48
2023-05-14T12:08:31.818Z,15.61
2023-05-14T12:11:00.487Z,15.73
2023-05-14T12:13:29.179Z,15.54
2023-05-14T12:15:59.055Z,15.61
2023-05-14T12:18:27.481Z,15.79
2023-05-14T12:20:54.425Z,15.62
2023-05-14T12:23:29.423Z,15.28
2023-05-14T12:25:56.295Z,15.63
2023-05-14T12:28:23.741Z,15.45
2023-05-14T12:30:57.675Z,15.50
2023-05-14T12:33:26.543Z,15.86
2023-05-14T12:36:17.493Z,15.85
2023-05-14T12:38:48.982Z,15.35
2023-05-14T12:41:15.824Z,15.29
2023-05-14T12:43:48.185Z,15.61
2023-05-14T12:46:14.975Z,15.67
2023-05-14T12:48:41.618Z,15.43
2023-05-14T12:51:08.777Z,15.39
2023-05-14T12:53:35.502Z,15.24
2023-05-14T12:56:02.462Z,15.08
2023-05-14T12:58:29.188Z,14.97
2023-05-14T13:00:56.513Z,14.96
2023-05-14T13:03:23.442Z,14.91
2023-05-14T13:05:52.315Z,14.53
2023-05-14T13:08:21.527Z,14.20
2023-05-14T13:10:48.272Z,14.27
2023-05-14T13:13:17.673Z,13.94
2023-05-14T13:15:49.732Z,13.86
2023-05-14T13:18:17.669Z,13.63
2023-05-14T13:20:47.234Z,13.61
2023-05-14T13:23:14.778Z,13.38
2023-05-14T13:25:41.444Z,13.37
2023-05-14T13:28:08.746Z,13.47
2023-05-14T13:30:35.628Z,13.56
2023-05-14T13:33:02.505Z,13.43
2023-05-14T13:35:29.361Z,13.55
2023-05-14T13:37:56.141Z,13.49
2023-05-14T13:40:22.833Z,13.36
2023-05-14T13:42:49.556Z,13.41
2023-05-14T13:45:30.939Z,13.20
2023-05-14T13:47:57.735Z,12.96
2023-05-14T13:50:24.571Z,12.98
2023-05-14T13:52:52.278Z,12.94
2023-05-14T13:55:18.984Z,12.90
2023-05-14T13:57:45.736Z,12.89
2023-05-14T14:00:13.479Z,12.88
2023-05-14T14:02:40.208Z,12.82
2023-05-14T14:05:07.284Z,12.76
2023-05-14T14:07:34.057Z,12.87
2023-05-14T14:10:01.710Z,12.87
2023-05-14T14:12:28.593Z,12.84
2023-05-14T14:14:55.373Z,12.78
2023-05-14T14:17:22.166Z,12.90
2023-05-14T14:19:48.858Z,12.77
2023-05-14T14:22:17.631Z,12.63
2023-05-14T14:24:44.404Z,12.91
2023-05-14T14:27:12.074Z,13.04
2023-05-14T14:29:38.832Z,12.98
2023-05-14T14:32:06.246Z,12.97
2023-05-14T14:34:32.933Z,13.05
2023-05-14T14:36:59.560Z,12.96
2023-05-14T14:39:27.035Z,13.08
2023-05-14T14:41:53.685Z,12.88
2023-05-14T14:44:20.852Z,12.90
2023-05-14T14:46:47.628Z,12.92
2023-05-14T14:49:14.229Z,12.87
2023-05-14T14:51:40.968Z,12.95
2023-05-14T14:54:07.643Z,12.86
2023-05-14T14:56:34.300Z,12.75
2023-05-14T14:59:10.985Z,12.73
2023-05-14T15:01:37.762Z,12.56
2023-05-14T15:04:04.642Z,12.61
2023-05-14T15:06:31.376Z,12.48
2023-05-14T15:08:58.127Z,12.57
2023-05-14T15:11:24.755Z,12.57
2023-05-14T15:13:51.864Z,12.50
2023-05-14T15:16:18.522Z,12.63
2023-05-14T15:18:45.267Z,12.72
2023-05-14T15:21:11.988Z,12.70
2023-05-14T15:23:38.692Z,12.69
2023-05-14T15:26:05.607Z,12.69
2023-05-14T15:28:32.282Z,12.87
2023-05-14T15:30:59.453Z,12.86
2023-05-14T15:33:26.094Z,12.97
2023-05-14T15:35:52.767Z,12.97
2023-05-14T15:38:19.494Z,12.93
2023-05-14T15:40:46.190Z,12.99
2023-05-14T15:43:12.954Z,12.94
2023-05-14T15:45:39.665Z,12.90
2023-05-14T15:48:06.480Z,12.85
2023-05-14T15:50:33.205Z,12.84
2023-05-14T15:53:00.480Z,12.77
2023-05-14T15:55:36.437Z,12.75
2023-05-14T15:58:03.080Z,12.79
2023-05-14T16:00:29.987Z,12.86
2023-05-14T16:02:56.844Z,12.75
2023-05-14T16:05:23.711Z,12.78
2023-05-14T16:07:50.464Z,12.80
2023-05-14T16:10:17.240Z,12.69
2023-05-14T16:12:43.928Z,12.78
2023-05-14T16:17:42.266Z,12.88
2023-05-14T16:20:09.661Z,12.76
2023-05-14T16:22:36.759Z,12.78
2023-05-14T16:25:04.926Z,12.72
2023-05-14T16:27:31.870Z,12.57
2023-05-14T16:29:58.541Z,12.55
2023-05-14T16:32:25.529Z,12.68
2023-05-14T16:34:52.285Z,12.48
2023-05-14T16:37:20.305Z,12.53
2023-05-14T16:39:47.095Z,12.56
2023-05-14T16:42:14.020Z,12.52
2023-05-14T16:44:40.623Z,12.41
2023-05-14T16:47:07.393Z,12.24
2023-05-14T16:49:35.675Z,12.20
2023-05-14T16:52:02.337Z,12.25
2023-05-14T16:54:29.050Z,12.39
2023-05-14T16:56:55.709Z,12.47
2023-05-14T16:59:22.360Z,12.44
2023-05-14T17:01:49.186Z,12.12
2023-05-14T17:04:16.026Z,12.18
2023-05-14T17:06:51.382Z,12.20
2023-05-14T17:09:18.025Z,11.96
2023-05-14T17:11:44.748Z,12.01
2023-05-14T17:14:11.451Z,11.97
2023-05-14T17:16:40.560Z,12.05
2023-05-14T17:19:07.295Z,12.13
2023-05-14T17:21:43.956Z,11.98
2023-05-14T17:24:10.601Z,11.95
2023-05-14T17:26:37.902Z,11.88
2023-05-14T17:29:04.585Z,12.03
2023-05-14T17:31:31.351Z,11.94
2023-05-14T17:33:58.850Z,11.93
2023-05-14T17:36:26.018Z,11.70
2023-05-14T17:38:52.662Z,11.83
2023-05-14T17:41:19.357Z,11.68
2023-05-14T17:43:45.984Z,11.55
2023-05-14T17:46:12.629Z,11.71
2023-05-14T17:48:39.300Z,11.85
2023-05-14T17:51:06.005Z,11.85
2023-05-14T17:53:32.709Z,11.85
2023-05-14T17:55:59.623Z,11.62
2023-05-14T17:58:26.349Z,11.72
2023-05-14T18:00:53.396Z,11.75
2023-05-14T18:03:20.397Z,11.68
2023-05-14T18:05:47.356Z,11.75
2023-05-14T18:08:21.493Z,11.67
2023-05-14T18:10:48.183Z,11.61
2023-05-14T18:13:14.850Z,11.49
2023-05-14T18:15:41.624Z,11.52
2023-05-14T18:18:08.473Z,11.50
2023-05-14T18:20:35.667Z,11.51
2023-05-14T18:23:02.832Z,11.37
2023-05-14T18:25:29.601Z,11.29
2023-05-14T18:27:56.288Z,11.41
2023-05-14T18:30:22.975Z,11.35
2023-05-14T18:32:50.173Z,11.10
2023-05-14T18:35:16.973Z,11.06
2023-05-14T18:37:43.643Z,11.11
2023-05-14T18:40:11.297Z,11.08
2023-05-14T18:42:37.950Z,11.10
2023-05-14T18:45:04.851Z,11.22
2023-05-14T18:47:32.658Z,11.03
2023-05-14T18:50:04.654Z,11.11
2023-05-14T18:52:32.355Z,11.16
2023-05-14T18:54:59.058Z,10.94
2023-05-14T18:57:32.927Z,10.98
2023-05-14T19:00:04.264Z,10.93
2023-05-14T19:02:31.351Z,11.01
2023-05-14T19:04:58.155Z,11.19
2023-05-14T19:07:24.875Z,11.15
2023-05-14T19:09:51.892Z,11.16
2023-05-14T19:12:18.551Z,11.30
2023-05-14T19:14:45.411Z,11.35
2023-05-14T19:17:12.109Z,11.40
2023-05-14T19:19:39.445Z,11.43
2023-05-14T19:22:06.861Z,11.47
2023-05-14T19:24:33.660Z,11.47
2023-05-14T19:27:00.800Z,11.42
2023-05-14T19:29:27.522Z,11.22
2023-05-14T19:31:54.243Z,11.08
2023-05-14T19:34:21.554Z,10.86
2023-05-14T19:36:48.410Z,10.81
2023-05-14T19:39:15.049Z,10.99
2023-05-14T19:41:41.711Z,11.21
2023-05-14T19:44:08.369Z,11.21
2023-05-14T19:46:35.175Z,11.25
2023-05-14T19:49:01.936Z,11.09
2023-05-14T19:51:28.773Z,11.15
2023-05-14T19:53:55.509Z,11.00
2023-05-14T19:56:22.919Z,10.86
2023-05-14T19:58:51.153Z,11.07
2023-05-14T20:01:17.946Z,11.22
2023-05-14T20:03:44.694Z,11.24
2023-05-14T20:06:11.495Z,11.12
2023-05-14T20:08:38.363Z,11.02
2023-05-14T20:11:05.079Z,11.10
2023-05-14T20:13:32.818Z,11.08
2023-05-14T20:16:01.438Z,11.21
2023-05-14T20:18:28.197Z,11.07
2023-05-14T20:20:54.896Z,10.48
2023-05-14T20:23:21.694Z,10.51
2023-05-14T20:25:48.400Z,10.53
2023-05-14T20:28:15.213Z,10.51
2023-05-14T20:30:41.870Z,10.42
2023-05-14T20:33:08.681Z,10.32
2023-05-14T20:35:35.410Z,10.23
2023-05-14T20:38:03.747Z,10.24
2023-05-14T20:40:32.748Z,10.37
2023-05-14T20:42:59.527Z,10.14
2023-05-14T20:45:26.422Z,10.09
2023-05-14T20:47:53.383Z,10.16
2023-05-14T20:50:20.214Z,10.31
2023-05-14T20:52:46.915Z,10.38
2023-05-14T20:55:14.049Z,10.43
2023-05-14T20:57:41.034Z,10.38
2023-05-14T21:00:11.221Z,10.51
2023-05-14T21:02:38.914Z,10.54
2023-05-14T21:05:06.637Z,10.50
2023-05-14T21:07:33.531Z,10.49
2023-05-14T21:10:00.437Z,10.39
2023-05-14T21:12:27.135Z,10.25
2023-05-14T21:14:53.983Z,9.97
2023-05-14T21:17:20.630Z,9.94
2023-05-14T21:19:47.274Z,9.97
2023-05-14T21:22:14.098Z,9.84
2023-05-14T21:24:41.061Z,9.89
2023-05-14T21:27:07.962Z,9.71
2023-05-14T21:29:34.662Z,9.76
2023-05-14T21:32:01.413Z,9.83
2023-05-14T21:34:35.079Z,9.56
2023-05-14T21:37:01.728Z,9.30
2023-05-14T21:39:28.350Z,9.61
2023-05-14T21:41:55.026Z,9.72
2023-05-14T21:44:22.313Z,9.67
2023-05-14T21:46:49.407Z,9.62
2023-05-14T21:49:16.050Z,9.52
2023-05-14T21:51:42.943Z,9.50
2023-05-14T21:54:09.805Z,9.35
2023-05-14T21:56:37.307Z,9.36
2023-05-14T21:59:04.843Z,9.38
2023-05-14T22:01:32.556Z,9.33
2023-05-14T22:04:00.619Z,9.32
2023-05-14T22:06:27.366Z,9.29
2023-05-14T22:08:54.074Z,9.44
2023-05-14T22:11:21.973Z,9.34
2023-05-14T22:13:49.068Z,9.35
2023-05-14T22:16:15.759Z,9.53
2023-05-14T22:18:42.725Z,9.62
2023-05-14T22:21:09.553Z,9.56
2023-05-14T22:23:36.233Z,9.48
2023-05-14T22:26:03.050Z,9.67
2023-05-14T22:28:29.688Z,9.75
2023-05-14T22:30:59.669Z,9.80
2023-05-14T22:33:26.999Z,9.77
2023-05-14T22:35:53.661Z,9.85
2023-05-14T22:38:20.953Z,9.77
2023-05-14T22:40:47.626Z,9.80
2023-05-14T22:43:14.261Z,9.69
2023-05-14T22:45:40.978Z,9.66
2023-05-14T22:48:07.753Z,9.70
2023-05-14T22:50:34.468Z,9.63
2023-05-14T22:53:01.099Z,9.64
2023-05-14T22:55:28.059Z,9.63
2023-05-14T22:57:54.965Z,9.59
2023-05-14T23:00:28.975Z,9.49
2023-05-14T23:02:55.636Z,9.49
2023-05-14T23:05:22.960Z,9.71
2023-05-14T23:07:49.800Z,9.63
2023-05-14T23:10:16.545Z,9.45
2023-05-14T23:12:43.213Z,9.64
2023-05-14T23:15:10.380Z,9.55
2023-05-14T23:17:38.042Z,9.59
2023-05-14T23:20:06.077Z,9.69
2023-05-14T23:22:32.788Z,9.86
2023-05-14T23:24:59.461Z,9.91
2023-05-14T23:27:26.456Z,9.97
2023-05-14T23:29:53.421Z,9.99
2023-05-14T23:32:20.098Z,9.94
2023-05-14T23:34:46.737Z,9.96
2023-05-14T23:37:13.929Z,9.81
2023-05-14T23:39:40.960Z,9.86
2023-05-14T23:42:07.606Z,9.85
2023-05-14T23:44:34.286Z,9.62
2023-05-14T23:47:01.060Z,9.83
2023-05-14T23:49:27.885Z,9.66
2023-05-14T23:51:54.681Z,9.75
2023-05-14T23:54:21.521Z,9.91
2023-05-14T23:56:48.151Z,9.94
2023-05-14T23:59:14.953Z,9.87
